Strona główna
METAR-TAF:

METAR-TAF

Lotnisko :

Port lotniczy Gibraltar

Gibraltar, Gibraltar

Szerokość geograficzna: 36-09N, Długość geograficzna: 005-21W, wysokość: 5 m

Aktualna obserwacja pogody

Raport powstał 35 minut temu, godzina 23:50 UTC
Wiatr 19 kt od wschodnio-północny wschód
Temperatura 23°C
Wilgotność 94%
Ciśnienie 1022 hPa
Widzialność 10 km lub więcej

METAR: LXGB 252350Z AUTO 06019KT 9999 // SCT013/// BKN023/// 23/22 Q1022

czas: 02:25 (00:25 UTC)

Prognoza

Raport powstał 11 godziny i 5 minut temu, godzina 13:20 UTC
Prognoza ważna od 25 godzina 15 UTC do 25 godzina 22 UTC
Wiatr 15 kt od wschodnio-północny wschód
Widzialność 10 km lub więcej
Mało chmury na wysokości 1200 ft
Prawdopodobieństwo 40% :
Przejściowo
od 25 godzina 15 UTC do 25 godzina 21 UTC
Wiatr 15 kt od wschód w porywach dochodzący do 25 kt

TAF: LXGB 251320Z 2515/2522 07015KT 9999 FEW012 PROB40 TEMPO 2515/2521 09015G25KT 520001

Obserwacja i prognoza pogody dla ponad 4000 lotnisk (raport METAR i TAF).

Dostępne stacje oznaczono żółtymi i czerwonymi punktami na mapie.

Najedź kursorem aby zobaczyć nazwę stacji.

Kliknij aby zobaczyć obserwacje i prognozy pogody.

Aby zmienić mapę: kliknij na zielony przycisk z czarnym krzyżykiem, aby powiększyć; na zielony przycisk z myślnikiem, aby pomniejszyć; na zielone strzałki, aby przejść do map sąsiednich.


METAR-TAF: